createdAt,value
2018-07-05T00:02:18.159Z,99.40
2018-07-05T00:04:57.416Z,99.60
2018-07-05T00:07:36.559Z,99.70
2018-07-05T00:10:15.725Z,99.60
2018-07-05T00:12:54.556Z,99.70
2018-07-05T00:15:33.680Z,99.80
2018-07-05T00:18:12.697Z,99.70
2018-07-05T00:20:51.880Z,99.60
2018-07-05T00:23:31.098Z,99.60
2018-07-05T00:26:10.212Z,99.90
2018-07-05T00:28:49.245Z,99.90
2018-07-05T00:31:28.234Z,99.90
2018-07-05T00:36:40.356Z,99.90
2018-07-05T00:39:19.340Z,99.90
2018-07-05T00:41:58.560Z,99.90
2018-07-05T00:44:37.517Z,99.90
2018-07-05T00:49:49.845Z,99.90
2018-07-05T00:55:01.911Z,99.90
2018-07-05T00:57:40.897Z,99.90
2018-07-05T01:00:19.973Z,99.90
2018-07-05T01:02:59.162Z,99.90
2018-07-05T01:05:38.221Z,99.90
2018-07-05T01:08:17.405Z,99.90
2018-07-05T01:13:29.633Z,99.90
2018-07-05T01:16:08.830Z,99.90
2018-07-05T01:18:47.902Z,99.90
2018-07-05T01:21:26.955Z,99.90
2018-07-05T01:24:06.075Z,99.90
2018-07-05T01:26:44.904Z,99.90
2018-07-05T01:29:23.953Z,99.90
2018-07-05T01:32:02.999Z,99.90
2018-07-05T01:34:42.050Z,99.90
2018-07-05T01:37:21.064Z,99.90
2018-07-05T01:40:00.133Z,99.90
2018-07-05T01:42:39.183Z,99.90
2018-07-05T01:45:18.065Z,99.90
2018-07-05T01:47:57.030Z,99.90
2018-07-05T01:50:36.257Z,99.90
2018-07-05T01:53:15.384Z,99.90
2018-07-05T01:55:54.358Z,99.90
2018-07-05T01:58:33.346Z,99.90
2018-07-05T02:01:12.406Z,99.90
2018-07-05T02:03:51.410Z,99.90
2018-07-05T02:06:30.379Z,99.90
2018-07-05T02:11:43.022Z,99.90
2018-07-05T02:14:21.833Z,99.90
2018-07-05T02:19:33.872Z,99.90
2018-07-05T02:22:12.851Z,99.90
2018-07-05T02:24:51.922Z,99.90
2018-07-05T02:27:30.964Z,99.90
2018-07-05T02:30:10.061Z,99.90
2018-07-05T02:35:22.284Z,99.90
2018-07-05T02:38:06.878Z,99.90
2018-07-05T02:40:45.994Z,99.90
2018-07-05T02:43:24.916Z,99.90
2018-07-05T02:46:04.060Z,99.90
2018-07-05T02:48:42.970Z,99.90
2018-07-05T02:51:21.967Z,99.90
2018-07-05T02:54:01.136Z,99.90
2018-07-05T02:56:40.169Z,99.90
2018-07-05T02:59:19.337Z,99.90
2018-07-05T03:01:58.383Z,99.90
2018-07-05T03:07:10.684Z,99.90
2018-07-05T03:09:49.642Z,99.90
2018-07-05T03:12:28.869Z,99.90
2018-07-05T03:15:08.163Z,99.90
2018-07-05T03:17:47.467Z,99.90
2018-07-05T03:20:26.643Z,99.90
2018-07-05T03:25:38.902Z,99.90
2018-07-05T03:28:17.875Z,99.90
2018-07-05T03:30:56.898Z,99.90
2018-07-05T03:33:35.995Z,99.90
2018-07-05T03:36:14.926Z,99.90
2018-07-05T03:38:53.944Z,99.90
2018-07-05T03:41:33.168Z,99.90
2018-07-05T03:44:12.417Z,99.90
2018-07-05T03:46:51.323Z,99.90
2018-07-05T03:49:30.448Z,99.90
2018-07-05T03:52:09.533Z,99.90
2018-07-05T03:54:48.468Z,99.90
2018-07-05T03:57:27.590Z,99.90
2018-07-05T04:00:06.650Z,99.90
2018-07-05T04:02:45.714Z,99.90
2018-07-05T04:05:24.769Z,99.90
2018-07-05T04:08:03.787Z,99.90
2018-07-05T04:10:42.742Z,99.90
2018-07-05T04:13:21.959Z,99.90
2018-07-05T04:16:01.142Z,99.90
2018-07-05T04:18:40.212Z,99.90
2018-07-05T04:21:19.198Z,99.90
2018-07-05T04:23:58.250Z,99.90
2018-07-05T04:26:37.385Z,99.90
2018-07-05T04:29:16.443Z,99.90
2018-07-05T04:31:55.553Z,99.90
2018-07-05T04:34:34.552Z,99.90
2018-07-05T04:37:13.523Z,99.90
2018-07-05T04:39:52.460Z,99.90
2018-07-05T04:45:04.849Z,99.90
2018-07-05T04:47:43.949Z,99.90
2018-07-05T04:50:22.944Z,99.90
2018-07-05T04:55:35.409Z,99.90
2018-07-05T04:58:14.382Z,99.90
2018-07-05T05:03:26.792Z,99.90
2018-07-05T05:06:06.119Z,99.90
2018-07-05T05:08:45.136Z,99.90
2018-07-05T05:11:24.147Z,99.90
2018-07-05T05:14:03.094Z,99.90
2018-07-05T05:16:42.222Z,99.90
2018-07-05T05:19:22.399Z,99.90
2018-07-05T05:24:34.591Z,99.90
2018-07-05T05:27:13.655Z,99.90
2018-07-05T05:32:26.364Z,99.90
2018-07-05T05:35:05.588Z,99.90
2018-07-05T05:37:44.820Z,99.90
2018-07-05T05:40:23.806Z,99.90
2018-07-05T05:43:02.969Z,99.90
2018-07-05T05:45:41.987Z,99.90
2018-07-05T05:48:21.130Z,99.90
2018-07-05T05:51:00.222Z,99.90
2018-07-05T05:53:39.568Z,99.90
2018-07-05T05:56:18.429Z,99.90
2018-07-05T05:58:57.494Z,97.70
2018-07-05T06:01:36.571Z,95.30
2018-07-05T06:04:15.933Z,94.30
2018-07-05T06:09:28.260Z,91.70
2018-07-05T06:19:46.741Z,83.20
2018-07-05T06:22:25.691Z,81.40
2018-07-05T06:25:04.699Z,81.20
2018-07-05T06:27:43.743Z,79.90
2018-07-05T06:32:56.299Z,78.00
2018-07-05T06:35:35.389Z,73.80
2018-07-05T06:38:14.584Z,74.30
2018-07-05T06:40:53.742Z,72.50
2018-07-05T06:43:32.712Z,71.70
2018-07-05T06:46:11.712Z,71.20
2018-07-05T06:48:50.699Z,71.80
2018-07-05T06:51:30.100Z,68.40
2018-07-05T06:54:10.061Z,67.80
2018-07-05T06:56:49.504Z,67.90
2018-07-05T06:59:28.649Z,68.20
2018-07-05T07:02:07.787Z,66.20
2018-07-05T07:04:47.712Z,67.80
2018-07-05T07:07:26.866Z,66.60
2018-07-05T07:10:05.778Z,65.70
2018-07-05T07:12:44.868Z,66.10
2018-07-05T07:15:24.118Z,65.60
2018-07-05T07:18:03.366Z,66.60
2018-07-05T07:20:42.520Z,65.90
2018-07-05T07:23:21.613Z,63.60
2018-07-05T07:26:00.714Z,63.70
2018-07-05T07:28:39.896Z,65.30
2018-07-05T07:31:19.036Z,65.90
2018-07-05T07:33:58.395Z,67.00
2018-07-05T07:39:10.845Z,62.50
2018-07-05T07:41:43.284Z,64.10
2018-07-05T07:44:09.946Z,63.60
2018-07-05T07:46:36.779Z,62.30
2018-07-05T07:51:30.539Z,63.30
2018-07-05T07:53:57.070Z,62.80
2018-07-05T07:56:23.776Z,64.90
2018-07-05T07:58:50.490Z,61.70
2018-07-05T08:01:17.298Z,60.10
2018-07-05T08:03:43.985Z,60.20
2018-07-05T08:06:10.641Z,59.10
2018-07-05T08:08:37.321Z,59.70
2018-07-05T08:11:04.101Z,60.10
2018-07-05T08:13:30.720Z,59.50
2018-07-05T08:15:57.344Z,59.70
2018-07-05T08:20:51.005Z,59.80
2018-07-05T08:23:17.680Z,59.30
2018-07-05T08:25:44.489Z,59.50
2018-07-05T08:28:11.279Z,58.20
2018-07-05T08:30:37.899Z,57.20
2018-07-05T08:33:04.550Z,57.20
2018-07-05T08:35:31.499Z,57.70
2018-07-05T08:37:58.213Z,57.10
2018-07-05T08:40:25.041Z,57.00
2018-07-05T08:42:51.574Z,57.60
2018-07-05T08:47:46.432Z,58.10
2018-07-05T08:50:13.040Z,58.20
2018-07-05T08:55:06.706Z,58.10
2018-07-05T08:57:33.419Z,57.20
2018-07-05T08:59:59.998Z,57.10
2018-07-05T09:02:26.569Z,56.30
2018-07-05T09:04:53.174Z,55.60
2018-07-05T09:07:19.844Z,55.90
2018-07-05T09:09:46.377Z,54.20
2018-07-05T09:12:12.924Z,55.30
2018-07-05T09:14:39.610Z,55.30
2018-07-05T09:17:06.692Z,53.40
2018-07-05T09:19:33.241Z,53.80
2018-07-05T09:22:00.154Z,53.20
2018-07-05T09:24:27.003Z,52.70
2018-07-05T09:26:53.665Z,51.80
2018-07-05T09:29:20.315Z,52.60
2018-07-05T09:31:46.884Z,52.60
2018-07-05T09:36:40.635Z,51.50
2018-07-05T09:39:07.465Z,51.50
2018-07-05T09:41:36.329Z,50.10
2018-07-05T09:44:03.166Z,51.00
2018-07-05T09:46:29.891Z,50.00
2018-07-05T09:51:23.556Z,50.70
2018-07-05T09:53:50.112Z,50.10
2018-07-05T09:58:44.006Z,47.80
2018-07-05T10:01:11.250Z,49.30
2018-07-05T10:06:04.975Z,48.70
2018-07-05T10:08:31.534Z,48.90
2018-07-05T10:10:58.217Z,47.60
2018-07-05T10:15:51.826Z,47.90
2018-07-05T10:18:18.779Z,47.80
2018-07-05T10:20:45.390Z,47.50
2018-07-05T10:23:11.940Z,47.90
2018-07-05T10:25:38.635Z,48.00
2018-07-05T10:28:05.271Z,47.50
2018-07-05T10:30:44.473Z,46.30
2018-07-05T10:33:23.494Z,46.50
2018-07-05T10:35:50.111Z,46.50
2018-07-05T10:38:16.620Z,45.80
2018-07-05T10:43:28.984Z,46.30
2018-07-05T10:46:08.114Z,47.10
2018-07-05T10:48:46.925Z,48.30
2018-07-05T10:51:25.916Z,49.70
2018-07-05T10:56:38.395Z,51.10
2018-07-05T10:59:17.719Z,51.00
2018-07-05T11:01:56.867Z,51.30
2018-07-05T11:04:36.539Z,51.60
2018-07-05T11:07:15.623Z,51.10
2018-07-05T11:09:56.387Z,51.60
2018-07-05T11:12:35.635Z,51.70
2018-07-05T11:15:14.856Z,52.30
2018-07-05T11:17:53.989Z,52.50
2018-07-05T11:20:34.137Z,52.40
2018-07-05T11:23:13.182Z,53.50
2018-07-05T11:25:52.266Z,52.10
2018-07-05T11:28:31.296Z,52.30
2018-07-05T11:31:10.466Z,52.70
2018-07-05T11:33:49.562Z,52.60
2018-07-05T11:36:28.643Z,52.20
2018-07-05T11:39:07.555Z,52.10
2018-07-05T11:41:46.928Z,52.10
2018-07-05T11:46:59.321Z,53.00
2018-07-05T11:49:38.382Z,53.30
2018-07-05T11:52:17.516Z,52.80
2018-07-05T11:57:29.866Z,51.10
2018-07-05T12:00:09.221Z,50.10
2018-07-05T12:02:48.268Z,50.80
2018-07-05T12:05:27.234Z,51.20
2018-07-05T12:10:39.414Z,51.60
2018-07-05T12:13:18.952Z,51.10
2018-07-05T12:15:58.213Z,51.70
2018-07-05T12:21:10.337Z,49.20
2018-07-05T12:26:22.309Z,48.50
2018-07-05T12:29:01.333Z,48.50
2018-07-05T12:31:40.491Z,48.90
2018-07-05T12:34:20.029Z,50.10
2018-07-05T12:36:59.150Z,49.20
2018-07-05T12:39:38.071Z,50.20
2018-07-05T12:42:17.100Z,48.70
2018-07-05T12:44:56.117Z,48.30
2018-07-05T12:47:35.129Z,49.00
2018-07-05T12:50:14.216Z,47.00
2018-07-05T13:00:33.078Z,45.50
2018-07-05T13:03:12.176Z,46.50
2018-07-05T13:05:51.385Z,47.10
2018-07-05T13:11:03.716Z,48.10
2018-07-05T13:13:42.633Z,47.60
2018-07-05T13:18:54.765Z,48.50
2018-07-05T13:21:34.838Z,49.50
2018-07-05T13:24:13.993Z,50.30
2018-07-05T13:26:53.356Z,50.30
2018-07-05T13:29:32.316Z,50.80
2018-07-05T13:32:11.412Z,50.40
2018-07-05T13:37:23.563Z,51.40
2018-07-05T13:40:03.333Z,50.70
2018-07-05T13:42:42.529Z,50.60
2018-07-05T13:45:21.485Z,50.40
2018-07-05T13:48:00.587Z,50.60
2018-07-05T13:50:39.526Z,51.20
2018-07-05T13:53:18.665Z,51.60
2018-07-05T13:55:57.764Z,52.50
2018-07-05T14:01:10.117Z,53.10
2018-07-05T14:03:49.315Z,54.30
2018-07-05T14:09:01.618Z,55.60
2018-07-05T14:11:40.661Z,56.40
2018-07-05T14:16:53.278Z,57.30
2018-07-05T14:22:05.631Z,57.80
2018-07-05T14:24:44.772Z,58.30
2018-07-05T14:27:23.693Z,59.20
2018-07-05T14:30:02.930Z,57.30
2018-07-05T14:32:42.009Z,57.80
2018-07-05T14:35:21.106Z,57.70
2018-07-05T14:38:00.359Z,58.50
2018-07-05T14:40:39.369Z,57.90
2018-07-05T14:43:18.347Z,58.70
2018-07-05T14:51:03.932Z,58.20
2018-07-05T14:53:42.900Z,58.20
2018-07-05T14:56:22.446Z,57.80
2018-07-05T14:59:02.205Z,58.00
2018-07-05T15:01:41.629Z,58.60
2018-07-05T15:04:20.942Z,58.60
2018-07-05T15:07:00.045Z,59.30
2018-07-05T15:09:39.294Z,59.10
2018-07-05T15:12:18.206Z,60.10
2018-07-05T15:14:57.526Z,60.80
2018-07-05T15:17:36.600Z,60.00
2018-07-05T15:22:48.820Z,60.20
2018-07-05T15:28:01.265Z,70.40
2018-07-05T15:30:40.401Z,73.50
2018-07-05T15:33:19.527Z,75.50
2018-07-05T15:35:58.552Z,80.40
2018-07-05T15:38:37.955Z,86.00
2018-07-05T15:41:16.886Z,91.20
2018-07-05T15:46:29.545Z,98.20
2018-07-05T15:49:08.711Z,98.70
2018-07-05T15:51:47.723Z,99.90
2018-07-05T15:54:26.932Z,99.90
2018-07-05T15:57:06.076Z,99.90
2018-07-05T15:59:45.247Z,99.90
2018-07-05T16:02:24.359Z,99.90
2018-07-05T16:05:03.429Z,99.90
2018-07-05T16:10:15.565Z,99.90
2018-07-05T16:12:54.569Z,99.90
2018-07-05T16:18:07.059Z,99.90
2018-07-05T16:20:46.147Z,99.90
2018-07-05T16:23:25.310Z,99.90
2018-07-05T16:26:04.351Z,99.90
2018-07-05T16:28:43.410Z,99.90
2018-07-05T16:33:55.780Z,99.90
2018-07-05T16:36:35.507Z,99.90
2018-07-05T16:39:14.522Z,99.90
2018-07-05T16:41:53.661Z,99.90
2018-07-05T16:44:32.701Z,99.90
2018-07-05T16:47:11.624Z,99.90
2018-07-05T16:49:50.585Z,99.90
2018-07-05T16:52:29.630Z,99.90
2018-07-05T16:55:08.699Z,99.90
2018-07-05T16:57:47.876Z,99.90
2018-07-05T17:00:26.902Z,99.90
2018-07-05T17:03:06.069Z,99.90
2018-07-05T17:08:18.767Z,99.90
2018-07-05T17:10:57.770Z,99.90
2018-07-05T17:13:37.022Z,99.90
2018-07-05T17:16:16.117Z,99.90
2018-07-05T17:18:55.244Z,99.90
2018-07-05T17:21:35.578Z,99.90
2018-07-05T17:24:14.729Z,99.90
2018-07-05T17:26:53.905Z,99.90
2018-07-05T17:29:32.939Z,99.90
2018-07-05T17:32:11.928Z,99.90
2018-07-05T17:34:50.954Z,99.90
2018-07-05T17:37:30.130Z,99.90
2018-07-05T17:42:43.157Z,99.90
2018-07-05T17:45:22.151Z,99.90
2018-07-05T17:48:01.115Z,99.90
2018-07-05T17:50:40.297Z,99.90
2018-07-05T17:53:19.309Z,99.90
2018-07-05T17:55:58.190Z,99.90
2018-07-05T17:58:37.157Z,99.90
2018-07-05T18:01:16.173Z,99.90
2018-07-05T18:06:28.686Z,99.90
2018-07-05T18:09:07.646Z,99.90
2018-07-05T18:11:46.774Z,99.90
2018-07-05T18:14:25.728Z,99.90
2018-07-05T18:17:04.886Z,99.90
2018-07-05T18:19:44.955Z,99.90
2018-07-05T18:24:56.981Z,99.90
2018-07-05T18:27:36.285Z,99.90
2018-07-05T18:30:15.406Z,99.90
2018-07-05T18:32:54.341Z,99.90
2018-07-05T18:35:33.420Z,99.90
2018-07-05T18:38:12.433Z,99.90
2018-07-05T18:40:51.450Z,99.90
2018-07-05T18:46:03.650Z,99.90
2018-07-05T18:48:42.970Z,99.90
2018-07-05T18:51:22.809Z,99.90
2018-07-05T18:54:01.860Z,99.90
2018-07-05T18:56:41.162Z,99.90
2018-07-05T18:59:20.310Z,99.90
2018-07-05T19:02:00.243Z,99.90
2018-07-05T19:04:39.682Z,99.90
2018-07-05T19:07:18.785Z,99.90
2018-07-05T19:09:57.841Z,99.90
2018-07-05T19:12:36.993Z,99.90
2018-07-05T19:15:16.050Z,99.90
2018-07-05T19:17:55.291Z,99.90
2018-07-05T19:20:34.325Z,99.90
2018-07-05T19:23:13.542Z,99.90
2018-07-05T19:25:52.515Z,99.90
2018-07-05T19:28:31.788Z,99.90
2018-07-05T19:33:44.074Z,99.90
2018-07-05T19:36:23.171Z,99.90
2018-07-05T19:39:02.316Z,99.90
2018-07-05T19:41:41.633Z,99.90
2018-07-05T19:46:54.296Z,99.90
2018-07-05T19:49:33.299Z,99.90
2018-07-05T19:52:12.776Z,99.90
2018-07-05T19:54:52.127Z,99.90
2018-07-05T19:57:31.242Z,99.90
2018-07-05T20:00:10.844Z,99.90
2018-07-05T20:02:50.434Z,99.90
2018-07-05T20:08:02.553Z,99.90
2018-07-05T20:10:41.699Z,99.90
2018-07-05T20:13:21.086Z,99.90
2018-07-05T20:16:00.209Z,99.90
2018-07-05T20:18:39.392Z,99.90
2018-07-05T20:23:51.592Z,99.90
2018-07-05T20:26:30.587Z,99.90
2018-07-05T20:29:09.978Z,99.90
2018-07-05T20:31:49.145Z,99.90
2018-07-05T20:34:28.726Z,99.90
2018-07-05T20:37:08.924Z,99.90
2018-07-05T20:39:47.991Z,99.90
2018-07-05T20:42:27.304Z,99.90
2018-07-05T20:45:06.736Z,99.90
2018-07-05T20:47:45.956Z,99.90
2018-07-05T20:50:24.861Z,99.90
2018-07-05T20:53:03.871Z,99.90
2018-07-05T20:55:42.764Z,99.90
2018-07-05T20:58:23.559Z,99.90
2018-07-05T21:01:02.602Z,99.90
2018-07-05T21:03:41.680Z,99.90
2018-07-05T21:06:20.619Z,99.90
2018-07-05T21:08:59.783Z,99.90
2018-07-05T21:11:38.815Z,99.90
2018-07-05T21:14:17.964Z,99.90
2018-07-05T21:16:56.971Z,99.90
2018-07-05T21:19:36.035Z,99.90
2018-07-05T21:22:15.483Z,99.90
2018-07-05T21:24:54.836Z,99.90
2018-07-05T21:27:33.908Z,99.90
2018-07-05T21:30:12.984Z,99.90
2018-07-05T21:32:52.041Z,99.90
2018-07-05T21:35:30.988Z,99.90
2018-07-05T21:38:09.904Z,99.90
2018-07-05T21:40:48.806Z,99.90
2018-07-05T21:43:27.754Z,99.90
2018-07-05T21:46:06.843Z,99.90
2018-07-05T21:48:45.848Z,99.90
2018-07-05T21:51:24.864Z,99.90
2018-07-05T21:54:03.864Z,99.90
2018-07-05T21:56:42.975Z,99.90
2018-07-05T21:59:22.072Z,99.90
2018-07-05T22:02:01.248Z,99.90
2018-07-05T22:07:13.743Z,99.90
2018-07-05T22:09:53.017Z,99.90
2018-07-05T22:15:05.343Z,99.90
2018-07-05T22:17:50.113Z,99.90
2018-07-05T22:20:34.798Z,99.90
2018-07-05T22:23:19.474Z,99.90
2018-07-05T22:26:37.429Z,99.90
2018-07-05T22:29:22.255Z,99.90
2018-07-05T22:32:01.264Z,99.90
2018-07-05T22:34:40.444Z,99.90
2018-07-05T22:37:19.453Z,99.90
2018-07-05T22:39:58.347Z,99.90
2018-07-05T22:42:37.542Z,99.90
2018-07-05T22:45:16.668Z,99.90
2018-07-05T22:47:55.783Z,99.90
2018-07-05T22:50:34.772Z,99.90
2018-07-05T22:53:13.964Z,99.90
2018-07-05T22:55:53.680Z,99.90
2018-07-05T22:58:32.823Z,99.90
2018-07-05T23:01:12.359Z,99.90
2018-07-05T23:03:51.615Z,99.90
2018-07-05T23:11:37.502Z,99.90
2018-07-05T23:14:16.529Z,99.90
2018-07-05T23:16:55.468Z,99.90
2018-07-05T23:19:34.596Z,99.90
2018-07-05T23:22:13.716Z,99.90
2018-07-05T23:24:52.894Z,99.90
2018-07-05T23:30:05.143Z,99.90
2018-07-05T23:32:44.130Z,99.90
2018-07-05T23:40:29.581Z,99.90
2018-07-05T23:43:08.510Z,99.90
2018-07-05T23:45:47.612Z,99.90
2018-07-05T23:48:26.563Z,99.90
2018-07-05T23:51:05.636Z,99.90
2018-07-05T23:53:44.769Z,99.90
2018-07-05T23:56:23.993Z,99.90
2018-07-05T23:59:03.966Z,99.90
